Time;durP1;ratioP1;P1;durP2;ratioP2;P2;SDS_P1;SDS_P2;PMS_P1;PMS_P2;Temp;Humidity;BMP_temperature;BMP_pressure;BME280_temperature;BME280_humidity;BME280_pressure;Samples;Min_cycle;Max_cycle;Signal;HPM_P1;HPM_P2
2024/04/25 00:01:52;;;;;;;5.30;2.80;;;;;;;;;;5335955;26;20082;-52
2024/04/25 00:04:18;;;;;;;4.47;1.90;;;;;;;;;;5339151;26;20028;-53
2024/04/25 00:06:43;;;;;;;3.85;2.20;;;;;;;;;;5336206;26;20008;-54
2024/04/25 00:09:09;;;;;;;4.60;2.45;;;;;;;;;;5336425;26;20012;-56
2024/04/25 00:11:35;;;;;;;4.40;2.08;;;;;;;;;;5335683;26;20009;-52
2024/04/25 00:14:01;;;;;;;5.82;2.40;;;;;;;;;;5300529;27;20014;-54
2024/04/25 00:16:27;;;;;;;4.93;2.40;;;;;;;;;;5329431;26;20019;-56
2024/04/25 00:18:53;;;;;;;2.85;2.22;;;;;;;;;;5332119;26;20005;-57
2024/04/25 00:21:19;;;;;;;5.20;2.00;;;;;;;;;;5338046;26;20015;-54
2024/04/25 00:23:44;;;;;;;6.07;2.05;;;;;;;;;;5338992;26;20013;-51
2024/04/25 00:26:10;;;;;;;3.92;2.20;;;;;;;;;;5339488;26;20119;-54
2024/04/25 00:28:36;;;;;;;5.90;2.15;;;;;;;;;;5338996;26;20022;-50
2024/04/25 00:31:01;;;;;;;4.53;2.10;;;;;;;;;;5336069;26;20009;-53
2024/04/25 00:33:27;;;;;;;3.95;2.38;;;;;;;;;;5339590;26;20085;-54
2024/04/25 00:35:53;;;;;;;2.50;1.88;;;;;;;;;;5338099;26;20087;-54
2024/04/25 00:38:18;;;;;;;2.95;1.92;;;;;;;;;;5308132;26;20006;-54
2024/04/25 00:40:46;;;;;;;2.78;1.90;;;;;;;;;;5307946;26;20549;-48
2024/04/25 00:43:13;;;;;;;3.38;2.13;;;;;;;;;;5308432;26;20024;-50
2024/04/25 00:45:38;;;;;;;4.13;1.85;;;;;;;;;;5335154;26;20311;-50
2024/04/25 00:48:04;;;;;;;3.75;2.17;;;;;;;;;;5339197;26;20005;-53
2024/04/25 00:50:31;;;;;;;4.88;2.30;;;;;;;;;;5337091;26;20005;-51
2024/04/25 00:52:59;;;;;;;3.58;2.40;;;;;;;;;;5339484;26;20016;-53
2024/04/25 00:55:26;;;;;;;6.85;2.60;;;;;;;;;;5334292;26;20023;-50
2024/04/25 00:57:52;;;;;;;3.80;2.55;;;;;;;;;;5333734;26;20012;-53
2024/04/25 01:00:19;;;;;;;4.45;2.50;;;;;;;;;;5309135;26;20010;-54
2024/04/25 01:02:44;;;;;;;3.65;2.58;;;;;;;;;;5301205;26;20005;-56
2024/04/25 01:05:11;;;;;;;3.58;2.47;;;;;;;;;;5334628;26;20099;-55
2024/04/25 01:07:37;;;;;;;5.20;2.45;;;;;;;;;;5335629;26;20073;-55
2024/04/25 01:10:03;;;;;;;3.00;2.30;;;;;;;;;;5294905;27;20013;-54
2024/04/25 01:12:31;;;;;;;6.57;2.30;;;;;;;;;;5323813;26;20040;-54
2024/04/25 01:14:57;;;;;;;4.82;2.55;;;;;;;;;;5338418;26;20020;-55
2024/04/25 01:17:22;;;;;;;3.47;2.50;;;;;;;;;;5334795;26;20025;-55
2024/04/25 01:19:49;;;;;;;3.50;2.42;;;;;;;;;;5279694;26;19997;-55
2024/04/25 01:22:15;;;;;;;3.60;2.25;;;;;;;;;;5305791;26;20015;-52
2024/04/25 01:24:41;;;;;;;3.90;2.38;;;;;;;;;;5338064;26;20001;-52
2024/04/25 01:27:07;;;;;;;4.82;2.15;;;;;;;;;;5333840;26;20071;-54
2024/04/25 01:29:33;;;;;;;3.40;2.13;;;;;;;;;;5334513;26;20078;-50
2024/04/25 01:32:00;;;;;;;2.78;1.98;;;;;;;;;;5307007;26;20017;-53
2024/04/25 01:34:26;;;;;;;3.20;2.28;;;;;;;;;;5335614;26;20009;-56
2024/04/25 01:36:52;;;;;;;3.65;2.17;;;;;;;;;;5335677;26;20503;-52
2024/04/25 01:39:18;;;;;;;3.80;1.95;;;;;;;;;;5337915;26;20008;-54
2024/04/25 01:41:44;;;;;;;4.65;2.33;;;;;;;;;;5307273;26;20063;-51
2024/04/25 01:44:09;;;;;;;4.72;2.35;;;;;;;;;;5337035;26;20021;-52
2024/04/25 01:46:37;;;;;;;5.50;2.15;;;;;;;;;;5332139;26;20017;-53
2024/04/25 01:49:03;;;;;;;4.93;2.38;;;;;;;;;;5304687;26;20005;-49
2024/04/25 01:51:29;;;;;;;6.00;2.45;;;;;;;;;;5338986;26;20009;-49
2024/04/25 01:53:54;;;;;;;3.20;2.20;;;;;;;;;;5335887;26;20009;-56
2024/04/25 01:56:20;;;;;;;4.22;2.40;;;;;;;;;;5306014;26;20009;-52
2024/04/25 01:58:46;;;;;;;6.40;2.20;;;;;;;;;;5334974;26;20084;-48
2024/04/25 02:01:12;;;;;;;3.63;2.35;;;;;;;;;;5334317;26;20020;-53
2024/04/25 02:03:37;;;;;;;5.00;2.35;;;;;;;;;;5337593;26;20048;-53
2024/04/25 02:06:04;;;;;;;4.35;2.67;;;;;;;;;;5338675;26;20005;-52
2024/04/25 02:08:31;;;;;;;3.85;2.22;;;;;;;;;;5304785;26;20016;-52
2024/04/25 02:10:57;;;;;;;5.95;2.45;;;;;;;;;;5307762;26;20532;-53
2024/04/25 02:13:22;;;;;;;6.90;2.90;;;;;;;;;;5337259;26;20009;-51
2024/04/25 02:15:48;;;;;;;5.25;2.55;;;;;;;;;;5337542;26;20095;-53
2024/04/25 02:18:14;;;;;;;3.78;2.55;;;;;;;;;;5335188;26;20478;-54
2024/04/25 02:26:09;;;;;;;4.45;2.60;;;;;;;;;;5301383;26;20351;-52
2024/04/25 02:28:36;;;;;;;5.65;2.80;;;;;;;;;;5336876;26;20005;-54
2024/04/25 02:31:02;;;;;;;5.20;2.72;;;;;;;;;;5292129;26;20001;-54
2024/04/25 02:33:27;;;;;;;6.43;3.13;;;;;;;;;;5337190;26;20194;-53
2024/04/25 02:35:53;;;;;;;5.93;2.30;;;;;;;;;;5334801;26;20012;-53
2024/04/25 02:38:19;;;;;;;3.60;2.35;;;;;;;;;;5306227;26;20049;-54
2024/04/25 02:40:48;;;;;;;4.60;2.47;;;;;;;;;;5274559;26;20013;-53
2024/04/25 02:43:14;;;;;;;5.30;2.80;;;;;;;;;;5303601;26;20476;-52
2024/04/25 02:45:40;;;;;;;8.20;2.38;;;;;;;;;;5337042;26;20084;-54
2024/04/25 02:48:06;;;;;;;5.38;2.50;;;;;;;;;;5306913;26;21932;-52
2024/04/25 02:50:31;;;;;;;5.97;2.60;;;;;;;;;;5332239;26;20799;-55
2024/04/25 02:52:57;;;;;;;3.95;2.47;;;;;;;;;;5334734;26;20020;-52
2024/04/25 02:55:23;;;;;;;4.93;2.30;;;;;;;;;;5304773;26;20040;-54
2024/04/25 02:57:49;;;;;;;3.90;2.40;;;;;;;;;;5337818;26;20569;-51
2024/04/25 03:00:14;;;;;;;4.22;2.30;;;;;;;;;;5306272;26;20045;-54
2024/04/25 03:02:40;;;;;;;5.43;2.80;;;;;;;;;;5250994;27;20021;-55
2024/04/25 03:05:06;;;;;;;5.85;2.38;;;;;;;;;;5330454;26;20009;-54
2024/04/25 03:07:33;;;;;;;4.55;2.40;;;;;;;;;;5307186;26;20114;-50
2024/04/25 03:09:59;;;;;;;4.07;2.30;;;;;;;;;;5306061;26;20020;-51
2024/04/25 03:12:24;;;;;;;4.05;2.60;;;;;;;;;;5334489;26;20023;-53
2024/04/25 03:14:51;;;;;;;7.82;2.78;;;;;;;;;;5337011;26;20082;-54
2024/04/25 03:17:17;;;;;;;7.90;2.92;;;;;;;;;;5305038;26;20023;-56
2024/04/25 03:19:43;;;;;;;4.90;2.50;;;;;;;;;;5306247;26;20016;-52
2024/04/25 03:22:09;;;;;;;4.75;2.92;;;;;;;;;;5333894;26;20048;-54
2024/04/25 03:24:35;;;;;;;6.60;2.63;;;;;;;;;;5333683;26;20009;-49
2024/04/25 03:27:00;;;;;;;5.88;2.63;;;;;;;;;;5333990;26;20052;-52
2024/04/25 03:29:26;;;;;;;4.80;2.40;;;;;;;;;;5271639;27;20079;-53
2024/04/25 03:31:52;;;;;;;5.13;2.42;;;;;;;;;;5321914;26;20001;-53
2024/04/25 03:34:17;;;;;;;5.43;2.38;;;;;;;;;;5334537;26;20153;-56
2024/04/25 03:36:43;;;;;;;3.42;2.13;;;;;;;;;;5304880;26;20467;-52
2024/04/25 03:39:09;;;;;;;4.53;2.38;;;;;;;;;;5335926;26;20070;-50
2024/04/25 03:41:34;;;;;;;7.63;2.40;;;;;;;;;;5336853;26;20009;-53
2024/04/25 03:44:00;;;;;;;3.63;2.28;;;;;;;;;;5333543;26;20016;-50
2024/04/25 03:46:26;;;;;;;7.00;2.53;;;;;;;;;;5336804;26;20009;-54
2024/04/25 03:48:51;;;;;;;7.10;2.00;;;;;;;;;;5289010;27;20105;-51
2024/04/25 03:51:17;;;;;;;6.70;2.28;;;;;;;;;;5295380;26;20110;-56
2024/04/25 03:53:43;;;;;;;7.03;2.63;;;;;;;;;;5335172;26;20016;-51
2024/04/25 03:56:08;;;;;;;3.90;2.30;;;;;;;;;;5332618;26;20036;-52
2024/04/25 03:58:34;;;;;;;5.20;2.10;;;;;;;;;;5335994;26;20017;-57
2024/04/25 04:01:00;;;;;;;11.45;2.55;;;;;;;;;;5335853;26;20019;-52
2024/04/25 04:03:26;;;;;;;5.22;2.42;;;;;;;;;;5290967;26;20086;-52
2024/04/25 04:05:52;;;;;;;3.25;2.03;;;;;;;;;;5333864;26;20005;-51
2024/04/25 04:08:17;;;;;;;7.85;2.97;;;;;;;;;;5336102;26;20408;-53
2024/04/25 04:10:43;;;;;;;3.75;2.10;;;;;;;;;;5306061;26;20017;-54
2024/04/25 04:13:10;;;;;;;5.00;2.70;;;;;;;;;;5336445;26;20045;-55
2024/04/25 04:15:36;;;;;;;8.10;2.53;;;;;;;;;;5332450;26;20094;-54
2024/04/25 04:18:02;;;;;;;5.15;2.58;;;;;;;;;;5304048;26;20043;-51
2024/04/25 04:20:27;;;;;;;4.25;2.47;;;;;;;;;;5303232;26;20009;-55
2024/04/25 04:22:53;;;;;;;3.88;2.22;;;;;;;;;;5336455;26;20024;-56
2024/04/25 04:25:19;;;;;;;5.20;2.70;;;;;;;;;;5333557;26;20008;-55
2024/04/25 04:27:44;;;;;;;4.70;2.22;;;;;;;;;;5333687;26;20005;-56
2024/04/25 04:30:10;;;;;;;6.93;2.60;;;;;;;;;;5301045;26;20005;-54
2024/04/25 04:32:36;;;;;;;5.10;2.50;;;;;;;;;;5332547;26;20001;-55
2024/04/25 04:35:01;;;;;;;4.20;2.60;;;;;;;;;;5332344;26;20516;-52
2024/04/25 04:37:29;;;;;;;4.85;2.63;;;;;;;;;;5290197;26;20006;-56
2024/04/25 04:39:54;;;;;;;4.35;2.28;;;;;;;;;;5329412;26;20005;-53
2024/04/25 04:42:20;;;;;;;6.30;2.60;;;;;;;;;;5303338;26;20009;-57
2024/04/25 04:44:46;;;;;;;5.25;2.67;;;;;;;;;;5337803;26;20009;-53
2024/04/25 04:47:11;;;;;;;10.73;2.97;;;;;;;;;;5332254;26;20001;-57
2024/04/25 04:49:37;;;;;;;7.03;3.00;;;;;;;;;;5336219;26;20036;-53
2024/04/25 04:52:02;;;;;;;5.75;2.40;;;;;;;;;;5336691;26;20009;-56
2024/04/25 04:54:28;;;;;;;4.82;2.85;;;;;;;;;;5304865;26;20019;-49
2024/04/25 04:56:54;;;;;;;5.13;2.67;;;;;;;;;;5338631;26;20098;-53
2024/04/25 04:59:20;;;;;;;8.10;2.65;;;;;;;;;;5336358;26;20020;-51
2024/04/25 05:01:45;;;;;;;7.72;2.35;;;;;;;;;;5337121;26;20040;-47
2024/04/25 05:04:11;;;;;;;4.88;2.45;;;;;;;;;;5338323;26;20029;-55
2024/04/25 05:06:37;;;;;;;4.07;2.38;;;;;;;;;;5278825;26;20005;-54
2024/04/25 05:09:04;;;;;;;7.43;2.40;;;;;;;;;;5275257;26;20019;-53
2024/04/25 05:11:31;;;;;;;7.55;2.47;;;;;;;;;;5306937;26;20078;-56
2024/04/25 05:13:59;;;;;;;4.70;2.78;;;;;;;;;;5338531;26;20040;-55
2024/04/25 05:16:25;;;;;;;5.57;3.27;;;;;;;;;;5308561;26;20032;-55
2024/04/25 05:18:51;;;;;;;4.55;2.42;;;;;;;;;;5336151;26;20001;-55
2024/04/25 05:21:17;;;;;;;5.38;2.92;;;;;;;;;;5344269;26;20009;-53
2024/04/25 05:23:42;;;;;;;10.45;2.72;;;;;;;;;;5337376;26;20168;-53
2024/04/25 05:26:08;;;;;;;5.40;2.58;;;;;;;;;;5337510;26;20874;-52
2024/04/25 05:28:34;;;;;;;4.50;2.42;;;;;;;;;;5306519;26;20082;-54
2024/04/25 05:31:00;;;;;;;7.70;2.50;;;;;;;;;;5335230;26;20013;-55
2024/04/25 05:33:26;;;;;;;6.90;2.33;;;;;;;;;;5336232;26;20004;-55
2024/04/25 05:35:51;;;;;;;5.03;2.38;;;;;;;;;;5301606;26;20017;-55
2024/04/25 05:38:17;;;;;;;4.72;2.45;;;;;;;;;;5335475;26;20008;-57
2024/04/25 05:40:42;;;;;;;4.70;2.50;;;;;;;;;;5302573;26;20009;-53
2024/04/25 05:43:08;;;;;;;4.13;2.58;;;;;;;;;;5300632;27;20009;-56
2024/04/25 05:45:34;;;;;;;8.15;3.45;;;;;;;;;;5292540;26;20015;-58
2024/04/25 05:48:00;;;;;;;3.15;2.03;;;;;;;;;;5308367;26;20056;-58
2024/04/25 05:50:25;;;;;;;6.22;2.78;;;;;;;;;;5336354;26;20087;-58
2024/04/25 05:52:51;;;;;;;7.22;2.78;;;;;;;;;;5305788;26;20019;-53
2024/04/25 05:55:17;;;;;;;8.32;2.70;;;;;;;;;;5336118;26;20028;-57
2024/04/25 05:57:44;;;;;;;6.38;2.20;;;;;;;;;;5334151;26;20009;-56
2024/04/25 06:00:10;;;;;;;6.97;3.08;;;;;;;;;;5337511;26;20011;-56
2024/04/25 06:02:36;;;;;;;5.68;2.50;;;;;;;;;;5335240;26;20019;-54
2024/04/25 06:05:01;;;;;;;5.78;2.70;;;;;;;;;;5337863;26;20020;-51
2024/04/25 06:07:27;;;;;;;12.15;2.40;;;;;;;;;;5336062;26;20002;-55
2024/04/25 06:09:53;;;;;;;7.88;2.22;;;;;;;;;;5307979;26;20001;-57
2024/04/25 06:12:19;;;;;;;6.25;2.78;;;;;;;;;;5333100;26;20001;-53
2024/04/25 06:14:45;;;;;;;4.75;2.42;;;;;;;;;;5337049;26;20111;-52
2024/04/25 06:17:11;;;;;;;6.15;2.70;;;;;;;;;;5308524;26;20024;-57
2024/04/25 06:19:37;;;;;;;4.20;2.72;;;;;;;;;;5332832;26;20483;-54
2024/04/25 06:22:03;;;;;;;5.45;2.58;;;;;;;;;;5337589;26;20004;-56
2024/04/25 06:24:28;;;;;;;8.10;2.97;;;;;;;;;;5304749;26;20005;-56
2024/04/25 06:26:54;;;;;;;5.65;2.83;;;;;;;;;;5336433;26;20009;-55
2024/04/25 06:29:20;;;;;;;8.15;2.95;;;;;;;;;;5335970;26;20009;-54
2024/04/25 06:31:45;;;;;;;8.10;3.10;;;;;;;;;;5334787;26;20016;-57
2024/04/25 06:34:11;;;;;;;12.43;2.78;;;;;;;;;;5332169;26;20001;-58
2024/04/25 06:36:37;;;;;;;12.15;3.22;;;;;;;;;;5336990;26;20488;-55
2024/04/25 06:39:03;;;;;;;4.50;2.75;;;;;;;;;;5336904;26;20083;-55
2024/04/25 06:41:29;;;;;;;4.93;2.75;;;;;;;;;;5333577;26;20005;-54
2024/04/25 06:43:54;;;;;;;11.30;3.90;;;;;;;;;;5303031;26;20005;-55
2024/04/25 06:46:20;;;;;;;5.63;3.08;;;;;;;;;;5297602;26;20074;-51
2024/04/25 06:48:46;;;;;;;8.65;2.75;;;;;;;;;;5305674;26;20034;-53
2024/04/25 06:51:12;;;;;;;6.05;2.58;;;;;;;;;;5332935;26;20016;-56
2024/04/25 06:53:38;;;;;;;6.72;3.10;;;;;;;;;;5296626;26;20000;-52
2024/04/25 06:56:04;;;;;;;9.88;3.60;;;;;;;;;;5303921;26;19997;-53
2024/04/25 06:58:29;;;;;;;13.30;3.10;;;;;;;;;;5334768;26;20024;-56
2024/04/25 07:00:56;;;;;;;11.07;3.33;;;;;;;;;;5333976;26;20396;-54
2024/04/25 07:03:22;;;;;;;9.35;3.08;;;;;;;;;;5300387;26;20020;-54
2024/04/25 07:05:48;;;;;;;6.00;2.80;;;;;;;;;;5331994;26;20008;-52
2024/04/25 07:08:14;;;;;;;9.10;3.30;;;;;;;;;;5306989;26;20033;-55
2024/04/25 07:10:40;;;;;;;13.07;3.55;;;;;;;;;;5252235;27;20020;-54
2024/04/25 07:13:06;;;;;;;8.63;3.42;;;;;;;;;;5245215;27;20036;-51
2024/04/25 07:15:32;;;;;;;4.40;2.90;;;;;;;;;;5272733;27;20002;-51
2024/04/25 07:18:03;;;;;;;7.65;2.75;;;;;;;;;;5285026;26;20005;-54
2024/04/25 07:20:29;;;;;;;6.70;3.63;;;;;;;;;;5333663;26;19997;-54
2024/04/25 07:22:54;;;;;;;7.63;3.40;;;;;;;;;;5322826;26;20044;-52
2024/04/25 07:25:20;;;;;;;10.52;3.25;;;;;;;;;;5335804;26;20019;-56
2024/04/25 07:27:46;;;;;;;8.10;3.03;;;;;;;;;;5299463;27;20377;-57
2024/04/25 07:30:11;;;;;;;6.95;3.15;;;;;;;;;;5272521;26;20001;-54
2024/04/25 07:32:37;;;;;;;6.13;2.78;;;;;;;;;;5303515;26;20006;-56
2024/04/25 07:35:03;;;;;;;5.63;2.85;;;;;;;;;;5337273;26;20005;-54
2024/04/25 07:37:30;;;;;;;5.57;3.10;;;;;;;;;;5336693;26;20005;-56
2024/04/25 07:39:56;;;;;;;9.75;3.50;;;;;;;;;;5336233;26;20017;-57
2024/04/25 07:42:22;;;;;;;8.52;2.80;;;;;;;;;;5306349;26;20048;-56
2024/04/25 07:44:47;;;;;;;13.07;3.65;;;;;;;;;;5337450;26;20005;-56
2024/04/25 07:47:13;;;;;;;7.75;2.97;;;;;;;;;;5337259;26;20009;-52
2024/04/25 07:49:39;;;;;;;8.00;3.00;;;;;;;;;;5305888;26;20057;-53
2024/04/25 07:52:06;;;;;;;6.47;2.78;;;;;;;;;;5337145;26;20009;-52
2024/04/25 07:54:32;;;;;;;7.93;3.00;;;;;;;;;;5320358;26;20021;-53
2024/04/25 07:56:57;;;;;;;6.70;3.45;;;;;;;;;;5302088;27;20001;-53
2024/04/25 07:59:25;;;;;;;4.65;3.25;;;;;;;;;;5327142;26;20020;-53
2024/04/25 08:01:51;;;;;;;9.05;3.20;;;;;;;;;;5277567;26;20009;-54
2024/04/25 08:04:16;;;;;;;7.47;3.30;;;;;;;;;;5305709;26;20074;-54
2024/04/25 08:06:42;;;;;;;7.25;2.97;;;;;;;;;;5336339;26;20472;-56
2024/04/25 08:09:08;;;;;;;4.20;2.92;;;;;;;;;;5304437;26;20005;-53
2024/04/25 08:11:33;;;;;;;6.05;3.45;;;;;;;;;;5336518;26;20005;-54
2024/04/25 08:13:59;;;;;;;8.45;2.90;;;;;;;;;;5336535;26;20061;-51
2024/04/25 08:16:24;;;;;;;6.38;3.22;;;;;;;;;;5335717;26;20009;-54
2024/04/25 08:18:50;;;;;;;5.55;3.08;;;;;;;;;;5337634;26;20016;-54
2024/04/25 08:21:16;;;;;;;6.78;3.38;;;;;;;;;;5339727;26;20005;-54
2024/04/25 08:23:42;;;;;;;8.77;3.13;;;;;;;;;;5308971;26;19997;-49
2024/04/25 08:26:07;;;;;;;7.78;3.22;;;;;;;;;;5274774;27;20386;-51
2024/04/25 08:28:34;;;;;;;6.15;3.20;;;;;;;;;;5332249;26;20042;-55
2024/04/25 08:31:00;;;;;;;6.35;3.35;;;;;;;;;;5307773;26;20033;-56
2024/04/25 08:33:26;;;;;;;7.28;3.17;;;;;;;;;;5308905;26;20020;-57
2024/04/25 08:35:51;;;;;;;5.80;3.00;;;;;;;;;;5307772;26;20004;-56
2024/04/25 08:38:17;;;;;;;6.50;3.35;;;;;;;;;;5338686;26;20009;-59
2024/04/25 08:40:43;;;;;;;10.02;3.05;;;;;;;;;;5339195;26;20013;-55
2024/04/25 08:43:08;;;;;;;9.15;3.58;;;;;;;;;;5308602;26;20005;-55
2024/04/25 08:45:34;;;;;;;8.23;3.10;;;;;;;;;;5308263;26;20051;-54
2024/04/25 08:48:00;;;;;;;8.23;3.20;;;;;;;;;;5339935;26;20082;-55
2024/04/25 08:50:28;;;;;;;6.60;3.05;;;;;;;;;;5340048;26;20023;-58
2024/04/25 08:52:54;;;;;;;7.55;3.10;;;;;;;;;;5339278;26;20024;-54
2024/04/25 08:55:20;;;;;;;7.53;3.08;;;;;;;;;;5339484;26;20020;-55
2024/04/25 08:57:46;;;;;;;7.22;3.00;;;;;;;;;;5338754;26;20080;-57
2024/04/25 09:00:12;;;;;;;7.50;3.35;;;;;;;;;;5308841;26;20001;-57
2024/04/25 09:02:38;;;;;;;10.25;3.17;;;;;;;;;;5309126;26;20017;-58
2024/04/25 09:05:07;;;;;;;9.70;3.53;;;;;;;;;;5339888;26;20023;-59
2024/04/25 09:07:33;;;;;;;11.65;3.40;;;;;;;;;;5339456;26;20056;-55
2024/04/25 09:09:59;;;;;;;9.10;3.30;;;;;;;;;;5339814;26;20013;-59
2024/04/25 09:12:31;;;;;;;10.73;3.28;;;;;;;;;;5339019;26;20012;-59
2024/04/25 09:14:58;;;;;;;14.00;3.55;;;;;;;;;;5280011;26;20012;-59
2024/04/25 09:17:25;;;;;;;9.77;3.03;;;;;;;;;;5338257;26;20063;-59
2024/04/25 09:19:51;;;;;;;6.35;3.30;;;;;;;;;;5338905;26;20082;-59
2024/04/25 09:22:17;;;;;;;4.72;3.00;;;;;;;;;;5339535;26;20044;-59
2024/04/25 09:24:43;;;;;;;9.85;3.22;;;;;;;;;;5308983;26;20718;-59
2024/04/25 09:27:08;;;;;;;6.43;3.22;;;;;;;;;;5308272;26;20005;-58
2024/04/25 09:29:34;;;;;;;8.50;3.33;;;;;;;;;;5308144;26;20033;-58
2024/04/25 09:32:00;;;;;;;7.55;3.08;;;;;;;;;;5308197;26;20005;-56
2024/04/25 09:34:26;;;;;;;11.80;3.63;;;;;;;;;;5338509;26;20467;-54
2024/04/25 09:36:52;;;;;;;6.97;2.95;;;;;;;;;;5338689;26;20399;-57
2024/04/25 09:39:18;;;;;;;7.88;3.40;;;;;;;;;;5338057;26;20069;-58
2024/04/25 09:41:48;;;;;;;9.32;3.95;;;;;;;;;;5307906;26;20001;-58
2024/04/25 09:44:14;;;;;;;6.15;3.45;;;;;;;;;;5339156;26;20021;-56
2024/04/25 09:46:45;;;;;;;10.85;3.42;;;;;;;;;;5338827;26;20005;-57
2024/04/25 09:49:13;;;;;;;10.43;3.70;;;;;;;;;;5337649;26;20009;-59
2024/04/25 09:51:44;;;;;;;6.95;3.10;;;;;;;;;;5338370;26;20009;-58
2024/04/25 09:54:19;;;;;;;10.48;3.58;;;;;;;;;;5338305;26;20458;-56
2024/04/25 09:56:48;;;;;;;6.68;3.28;;;;;;;;;;5338837;26;20830;-60
2024/04/25 09:59:21;;;;;;;6.97;3.00;;;;;;;;;;5338339;26;20019;-56
2024/04/25 10:01:48;;;;;;;8.07;3.28;;;;;;;;;;5339080;26;20480;-55
2024/04/25 10:04:14;;;;;;;6.43;2.88;;;;;;;;;;5339046;26;20008;-60
2024/04/25 10:06:40;;;;;;;7.20;3.47;;;;;;;;;;5307983;26;20400;-57
2024/04/25 10:09:06;;;;;;;8.55;3.50;;;;;;;;;;5337427;26;20078;-56
2024/04/25 10:11:35;;;;;;;9.30;3.30;;;;;;;;;;5338280;26;20001;-57
2024/04/25 10:14:01;;;;;;;9.25;3.13;;;;;;;;;;5338133;26;20020;-55
2024/04/25 10:16:27;;;;;;;10.10;3.78;;;;;;;;;;5338057;26;20005;-54
2024/04/25 10:18:53;;;;;;;9.05;3.50;;;;;;;;;;5336257;26;20555;-58
2024/04/25 10:21:19;;;;;;;9.63;2.95;;;;;;;;;;5338135;26;20017;-55
2024/04/25 10:23:47;;;;;;;9.80;3.00;;;;;;;;;;5338393;26;20020;-58
2024/04/25 10:26:16;;;;;;;7.45;3.00;;;;;;;;;;5307736;26;20009;-57
2024/04/25 10:28:42;;;;;;;9.02;3.20;;;;;;;;;;5338466;26;20020;-57
2024/04/25 10:31:08;;;;;;;7.32;3.13;;;;;;;;;;5336103;26;20001;-57
2024/04/25 10:33:34;;;;;;;11.13;3.53;;;;;;;;;;5306077;26;20004;-59
2024/04/25 10:36:03;;;;;;;9.50;2.55;;;;;;;;;;5337909;26;20009;-57
2024/04/25 10:38:29;;;;;;;9.32;3.58;;;;;;;;;;5337961;26;20452;-57
2024/04/25 10:40:56;;;;;;;9.00;3.40;;;;;;;;;;5336796;26;20001;-54
2024/04/25 10:43:21;;;;;;;14.25;3.38;;;;;;;;;;5338529;26;20029;-57
2024/04/25 10:45:49;;;;;;;11.18;3.90;;;;;;;;;;5338380;26;20567;-57
2024/04/25 10:48:14;;;;;;;8.70;3.13;;;;;;;;;;5338487;26;20388;-58
2024/04/25 10:50:42;;;;;;;10.55;3.28;;;;;;;;;;5337504;26;20013;-57
2024/04/25 10:53:08;;;;;;;6.55;3.05;;;;;;;;;;5249986;26;20005;-59
2024/04/25 10:55:34;;;;;;;8.32;2.75;;;;;;;;;;5338066;26;20031;-55
2024/04/25 10:58:15;;;;;;;6.72;3.17;;;;;;;;;;5337912;26;20001;-57
2024/04/25 11:00:42;;;;;;;12.35;2.80;;;;;;;;;;5306667;26;20004;-56
2024/04/25 11:03:10;;;;;;;7.32;3.35;;;;;;;;;;5338051;26;20026;-52
2024/04/25 11:05:47;;;;;;;12.10;3.00;;;;;;;;;;5307294;26;20056;-54
2024/04/25 11:08:16;;;;;;;5.78;2.80;;;;;;;;;;5279316;26;20880;-54
2024/04/25 11:10:42;;;;;;;6.90;3.05;;;;;;;;;;5337182;26;20093;-57
2024/04/25 11:13:07;;;;;;;11.90;3.58;;;;;;;;;;5337599;26;20019;-53
2024/04/25 11:15:34;;;;;;;7.95;3.35;;;;;;;;;;5337356;26;20020;-56
2024/04/25 11:18:03;;;;;;;8.80;3.20;;;;;;;;;;5307134;26;20082;-56
2024/04/25 11:20:32;;;;;;;11.52;2.92;;;;;;;;;;5337743;26;20083;-57
2024/04/25 11:23:11;;;;;;;10.77;3.40;;;;;;;;;;5336868;26;20008;-54
2024/04/25 11:25:36;;;;;;;;;;;;;;;;;;5307925;26;20074;-55
2024/04/25 11:28:02;;;;;;;12.63;3.08;;;;;;;;;;5278585;26;20323;-59
2024/04/25 11:30:28;;;;;;;11.65;3.70;;;;;;;;;;5337072;26;20011;-56
2024/04/25 11:32:53;;;;;;;12.88;3.47;;;;;;;;;;5336634;26;20009;-58
2024/04/25 11:35:20;;;;;;;7.65;3.42;;;;;;;;;;5337246;26;20004;-56
2024/04/25 11:37:46;;;;;;;12.73;3.22;;;;;;;;;;5306935;26;20005;-59
2024/04/25 11:40:12;;;;;;;13.32;3.25;;;;;;;;;;5306572;26;20016;-56
2024/04/25 11:42:37;;;;;;;10.73;3.00;;;;;;;;;;5336327;26;20005;-54
2024/04/25 11:45:03;;;;;;;11.32;3.25;;;;;;;;;;5337129;26;20055;-59
2024/04/25 11:47:30;;;;;;;14.95;3.25;;;;;;;;;;5306696;26;20017;-57
2024/04/25 11:49:56;;;;;;;9.48;3.20;;;;;;;;;;5306903;26;20102;-58
2024/04/25 11:52:21;;;;;;;13.75;4.00;;;;;;;;;;5336276;26;20444;-53
2024/04/25 11:54:47;;;;;;;15.10;3.53;;;;;;;;;;5306813;26;20773;-57
2024/04/25 11:57:14;;;;;;;14.18;3.83;;;;;;;;;;5337154;26;20085;-56
2024/04/25 11:59:42;;;;;;;12.82;3.80;;;;;;;;;;5337252;26;20197;-53
2024/04/25 12:02:08;;;;;;;10.40;2.92;;;;;;;;;;5306461;26;20013;-55
2024/04/25 12:04:34;;;;;;;13.05;3.72;;;;;;;;;;5271268;27;20006;-57
2024/04/25 12:06:59;;;;;;;9.10;2.42;;;;;;;;;;5302493;27;20556;-54
2024/04/25 12:09:25;;;;;;;7.22;2.70;;;;;;;;;;5300908;27;20432;-56
2024/04/25 12:11:52;;;;;;;15.07;3.42;;;;;;;;;;5302754;27;20082;-57
2024/04/25 12:14:18;;;;;;;12.82;3.13;;;;;;;;;;5321298;26;20077;-54
2024/04/25 12:16:44;;;;;;;17.98;4.03;;;;;;;;;;5251035;26;20017;-57
2024/04/25 12:19:12;;;;;;;16.65;3.17;;;;;;;;;;5337502;26;20005;-53
2024/04/25 12:21:41;;;;;;;17.35;3.45;;;;;;;;;;5307246;26;20001;-54
2024/04/25 12:24:07;;;;;;;9.38;2.65;;;;;;;;;;5336350;26;20357;-56
2024/04/25 12:26:33;;;;;;;23.80;3.30;;;;;;;;;;5305695;26;20484;-56
2024/04/25 12:28:59;;;;;;;13.73;3.67;;;;;;;;;;5306066;26;20005;-56
2024/04/25 12:31:27;;;;;;;15.65;3.30;;;;;;;;;;5249962;26;20493;-55
2024/04/25 12:33:55;;;;;;;12.20;2.80;;;;;;;;;;5336000;26;20008;-58
2024/04/25 12:36:20;;;;;;;13.85;4.07;;;;;;;;;;5336466;26;20379;-58
2024/04/25 12:38:46;;;;;;;15.82;4.43;;;;;;;;;;5304784;26;20009;-59
2024/04/25 12:41:12;;;;;;;13.27;3.08;;;;;;;;;;5336331;26;20009;-57
2024/04/25 12:43:38;;;;;;;16.13;3.30;;;;;;;;;;5336387;26;20020;-56
2024/04/25 12:46:04;;;;;;;14.48;2.78;;;;;;;;;;5336631;26;20033;-54
2024/04/25 12:48:30;;;;;;;11.68;2.38;;;;;;;;;;5305498;26;21087;-57
2024/04/25 12:50:56;;;;;;;9.20;2.67;;;;;;;;;;5336520;26;20005;-55
2024/04/25 12:53:22;;;;;;;10.55;2.72;;;;;;;;;;5336552;26;20098;-59
2024/04/25 12:55:49;;;;;;;14.68;3.22;;;;;;;;;;5336327;26;20051;-59
2024/04/25 12:58:15;;;;;;;11.10;2.97;;;;;;;;;;5305508;26;20016;-58
2024/04/25 13:00:43;;;;;;;19.83;3.38;;;;;;;;;;5336204;26;20236;-58
2024/04/25 13:03:09;;;;;;;9.82;2.78;;;;;;;;;;5336165;26;20495;-59
2024/04/25 13:05:34;;;;;;;16.42;3.13;;;;;;;;;;5308619;26;20089;-55
2024/04/25 13:08:00;;;;;;;11.50;2.88;;;;;;;;;;5338705;26;20025;-55
2024/04/25 13:10:26;;;;;;;15.23;3.55;;;;;;;;;;5339884;26;20095;-56
2024/04/25 13:12:51;;;;;;;9.68;2.80;;;;;;;;;;5309448;26;20030;-56
2024/04/25 13:15:17;;;;;;;17.52;3.85;;;;;;;;;;5280678;26;20009;-58
2024/04/25 13:17:43;;;;;;;11.40;2.97;;;;;;;;;;5308048;26;20016;-57
2024/04/25 13:20:10;;;;;;;13.95;2.97;;;;;;;;;;5308922;26;20494;-57
2024/04/25 13:22:35;;;;;;;11.00;2.58;;;;;;;;;;5309074;26;20020;-56
2024/04/25 13:25:01;;;;;;;11.35;2.25;;;;;;;;;;5309245;26;20009;-55
2024/04/25 13:27:30;;;;;;;;;;;;;;;;;;5301637;27;20010;-58
2024/04/25 13:29:56;;;;;;;13.60;2.95;;;;;;;;;;5303042;27;19926;-57
2024/04/25 13:32:22;;;;;;;19.30;3.63;;;;;;;;;;5304742;27;20006;-57
2024/04/25 13:34:51;;;;;;;15.13;3.42;;;;;;;;;;5304838;27;20111;-56
2024/04/25 13:37:17;;;;;;;17.75;3.63;;;;;;;;;;5304846;27;20076;-59
2024/04/25 13:39:46;;;;;;;11.98;3.47;;;;;;;;;;5301299;27;20799;-60
2024/04/25 13:42:12;;;;;;;10.13;3.03;;;;;;;;;;5326659;26;20013;-54
2024/04/25 13:44:39;;;;;;;13.18;2.97;;;;;;;;;;5339138;26;20017;-57
2024/04/25 13:47:05;;;;;;;12.27;2.67;;;;;;;;;;5339146;26;20364;-55
2024/04/25 13:49:30;;;;;;;12.73;3.10;;;;;;;;;;5301111;27;20013;-56
2024/04/25 13:51:56;;;;;;;10.75;2.85;;;;;;;;;;5304887;27;20006;-57
2024/04/25 13:54:22;;;;;;;11.82;3.65;;;;;;;;;;5305251;27;20016;-56
2024/04/25 13:56:48;;;;;;;16.42;3.83;;;;;;;;;;5305559;27;20005;-55
2024/04/25 13:59:14;;;;;;;15.18;3.22;;;;;;;;;;5321154;26;20078;-53
2024/04/25 14:01:39;;;;;;;14.25;2.78;;;;;;;;;;5338955;26;20349;-53
2024/04/25 14:04:05;;;;;;;16.90;2.83;;;;;;;;;;5338662;26;20089;-57
2024/04/25 14:06:30;;;;;;;14.85;3.20;;;;;;;;;;5338501;26;20020;-51
2024/04/25 14:08:56;;;;;;;12.93;2.25;;;;;;;;;;5338118;26;20008;-56
2024/04/25 14:11:21;;;;;;;8.18;2.40;;;;;;;;;;5307723;26;20005;-56
2024/04/25 14:13:48;;;;;;;10.60;2.72;;;;;;;;;;5338685;26;20485;-55
2024/04/25 14:16:14;;;;;;;12.43;2.35;;;;;;;;;;5337382;26;20020;-52
2024/04/25 14:18:39;;;;;;;7.68;2.45;;;;;;;;;;5338707;26;20340;-52
2024/04/25 14:21:05;;;;;;;8.93;2.42;;;;;;;;;;5337829;26;20061;-57
2024/04/25 14:23:31;;;;;;;9.93;2.47;;;;;;;;;;5338090;26;20857;-58
2024/04/25 14:28:44;;;;;;;9.43;2.03;;;;;;;;;;5338361;26;20097;-56
2024/04/25 14:31:10;;;;;;;7.35;2.55;;;;;;;;;;5336954;26;20011;-57
2024/04/25 14:33:36;;;;;;;12.60;2.75;;;;;;;;;;5307763;26;20369;-56
2024/04/25 14:36:02;;;;;;;20.33;2.58;;;;;;;;;;5337810;26;20001;-57
2024/04/25 14:38:27;;;;;;;11.52;2.92;;;;;;;;;;5338350;26;20001;-58
2024/04/25 14:40:55;;;;;;;16.23;2.33;;;;;;;;;;5278044;26;20005;-56
2024/04/25 14:43:21;;;;;;;11.88;2.65;;;;;;;;;;5307049;26;20011;-56